Time;durP1;ratioP1;P1;durP2;ratioP2;P2;SDS_P1;SDS_P2;PMS_P1;PMS_P2;Temp;Humidity;BMP_temperature;BMP_pressure;BME280_temperature;BME280_humidity;BME280_pressure;Samples;Min_cycle;Max_cycle;Signal;HPM_P1;HPM_P2
2022/03/31 00:00:44;;;;;;;11.50;5.80;;;;;;;16.78;33.81;99813.03;4955666;29;20027;-66
2022/03/31 00:03:12;;;;;;;16.35;6.22;;;;;;;16.76;33.96;99814.25;4955912;29;20031;-68
2022/03/31 00:05:38;;;;;;;9.30;4.80;;;;;;;16.73;34.47;99810.09;4955585;29;20106;-66
2022/03/31 00:08:09;;;;;;;11.52;5.03;;;;;;;16.71;34.30;99814.84;4955729;29;20385;-66
2022/03/31 00:10:43;;;;;;;12.23;5.97;;;;;;;16.67;34.47;99813.56;4955713;29;20136;-66
2022/03/31 00:13:13;;;;;;;12.00;5.40;;;;;;;16.65;33.86;99810.22;4955890;29;20019;-66
2022/03/31 00:15:39;;;;;;;10.70;4.88;;;;;;;16.64;33.65;99805.81;4954759;29;20392;-67
2022/03/31 00:18:05;;;;;;;13.15;5.05;;;;;;;16.62;34.64;99807.06;4955881;28;20031;-66
2022/03/31 00:20:31;;;;;;;12.60;5.28;;;;;;;16.60;34.57;99801.84;4955553;29;20473;-66
2022/03/31 00:22:57;;;;;;;9.05;5.63;;;;;;;16.60;33.95;99799.16;4955592;29;20082;-66
2022/03/31 00:25:23;;;;;;;14.48;6.10;;;;;;;16.58;34.96;99795.78;4955698;29;20031;-66
2022/03/31 00:27:49;;;;;;;11.60;6.28;;;;;;;16.57;34.05;99795.97;4955512;29;20469;-67
2022/03/31 00:30:15;;;;;;;12.32;5.72;;;;;;;16.56;33.70;99802.41;4954569;29;20023;-66
2022/03/31 00:32:41;;;;;;;15.52;6.57;;;;;;;16.54;33.52;99793.66;4955908;29;20030;-66
2022/03/31 00:35:10;;;;;;;14.30;7.13;;;;;;;16.52;33.81;99795.69;4938086;29;20122;-66
2022/03/31 00:37:35;;;;;;;17.58;5.50;;;;;;;16.49;35.04;99801.50;4954384;29;20536;-67
2022/03/31 00:40:01;;;;;;;14.32;5.68;;;;;;;16.45;34.73;99795.63;4955426;29;20115;-66
2022/03/31 00:42:26;;;;;;;9.50;5.80;;;;;;;16.44;34.89;99788.56;4954005;29;20473;-66
2022/03/31 00:44:52;;;;;;;17.60;6.03;;;;;;;16.42;33.62;99796.00;4954212;29;20050;-66
2022/03/31 00:47:18;;;;;;;13.80;6.15;;;;;;;16.42;34.88;99789.75;4954022;29;20086;-65
2022/03/31 00:49:44;;;;;;;16.40;6.47;;;;;;;16.41;34.74;99794.34;4954206;29;20496;-66
2022/03/31 00:52:10;;;;;;;9.52;5.55;;;;;;;16.41;34.95;99794.34;4955006;29;20543;-66
2022/03/31 00:54:36;;;;;;;10.90;5.38;;;;;;;16.41;34.18;99790.81;4954092;29;20031;-66
2022/03/31 00:57:03;;;;;;;9.13;5.80;;;;;;;16.42;34.38;99778.94;4955525;29;20020;-66
2022/03/31 00:59:29;;;;;;;14.15;6.15;;;;;;;16.42;34.99;99785.19;4955424;29;20023;-67
2022/03/31 01:01:56;;;;;;;13.27;5.63;;;;;;;16.39;35.04;99763.94;4955531;29;20027;-66
2022/03/31 01:04:21;;;;;;;13.32;6.00;;;;;;;16.34;35.01;99766.41;4955053;28;20110;-67
2022/03/31 01:06:47;;;;;;;11.02;6.07;;;;;;;16.35;35.01;99765.38;4958867;29;20525;-66
2022/03/31 01:09:13;;;;;;;13.80;5.78;;;;;;;16.34;34.65;99761.00;4957836;29;20031;-66
2022/03/31 01:11:39;;;;;;;11.98;6.25;;;;;;;16.33;34.03;99757.44;4958859;29;20027;-66
2022/03/31 01:14:06;;;;;;;15.07;6.80;;;;;;;16.33;35.44;99765.56;4958790;29;20495;-66
2022/03/31 01:16:32;;;;;;;13.50;6.72;;;;;;;16.32;35.25;99746.84;4958905;29;20027;-66
2022/03/31 01:18:57;;;;;;;11.20;6.57;;;;;;;16.29;33.76;99745.38;4957797;29;20095;-66
2022/03/31 01:21:23;;;;;;;13.38;6.47;;;;;;;16.26;34.30;99742.19;4957549;29;20031;-66
2022/03/31 01:23:48;;;;;;;12.35;6.25;;;;;;;16.24;34.30;99741.56;4958462;29;20031;-66
2022/03/31 01:26:14;;;;;;;12.07;5.75;;;;;;;16.24;34.12;99749.66;4958797;29;20023;-66
2022/03/31 01:28:42;;;;;;;14.70;5.82;;;;;;;16.23;35.49;99748.00;4958602;29;20370;-66
2022/03/31 01:31:08;;;;;;;19.05;5.72;;;;;;;16.21;34.22;99744.66;4941549;29;20027;-66
2022/03/31 01:33:34;;;;;;;13.27;6.90;;;;;;;16.21;34.28;99744.66;4958467;29;20029;-66
2022/03/31 01:35:59;;;;;;;12.52;6.93;;;;;;;16.20;35.56;99751.91;4958605;29;20027;-66
2022/03/31 01:38:25;;;;;;;16.50;6.32;;;;;;;16.21;35.30;99755.47;4957059;29;20031;-66
2022/03/31 01:40:51;;;;;;;10.52;6.10;;;;;;;16.20;34.26;99749.22;4958464;29;20031;-66
2022/03/31 01:43:17;;;;;;;13.32;6.18;;;;;;;16.19;35.35;99746.72;4958227;29;20038;-66
2022/03/31 01:45:42;;;;;;;14.27;5.97;;;;;;;16.15;35.95;99748.13;4958209;29;20030;-67
2022/03/31 01:48:08;;;;;;;12.82;7.22;;;;;;;16.16;35.17;99747.91;4958454;29;20377;-67
2022/03/31 01:50:34;;;;;;;15.05;5.45;;;;;;;16.14;34.64;99744.56;4958021;29;20033;-66
2022/03/31 01:52:59;;;;;;;17.65;6.55;;;;;;;16.15;35.17;99745.41;4957943;29;20051;-66
2022/03/31 01:55:27;;;;;;;13.13;6.30;;;;;;;16.12;35.67;99737.69;4958149;29;20568;-66
2022/03/31 01:57:52;;;;;;;14.43;6.07;;;;;;;16.12;34.88;99718.78;4957939;29;20034;-67
2022/03/31 02:00:18;;;;;;;19.67;6.15;;;;;;;16.11;35.67;99728.72;4956690;29;20027;-66
2022/03/31 02:02:43;;;;;;;12.48;6.75;;;;;;;16.11;34.53;99723.34;4958150;29;20023;-66
2022/03/31 02:05:10;;;;;;;15.27;6.30;;;;;;;16.10;35.71;99726.25;4957938;29;20392;-66
2022/03/31 02:07:36;;;;;;;13.98;6.45;;;;;;;16.09;35.83;99724.56;4958204;29;20102;-66
2022/03/31 02:10:08;;;;;;;14.15;5.95;;;;;;;16.07;34.76;99721.22;4956771;29;20027;-66
2022/03/31 02:12:34;;;;;;;13.50;6.20;;;;;;;16.06;35.31;99720.38;4957821;29;20481;-65
2022/03/31 02:15:03;;;;;;;13.07;6.07;;;;;;;16.04;34.59;99716.19;4957867;28;20061;-66
2022/03/31 02:17:28;;;;;;;10.75;5.88;;;;;;;16.02;34.71;99713.69;4956775;28;20423;-66
2022/03/31 02:19:53;;;;;;;15.07;6.43;;;;;;;16.02;35.64;99720.97;4956295;29;20050;-66
2022/03/31 02:22:19;;;;;;;11.95;6.75;;;;;;;16.01;34.65;99700.38;4956201;29;20023;-66
2022/03/31 02:24:44;;;;;;;17.88;6.60;;;;;;;16.00;34.36;99713.03;4957623;29;20031;-66
2022/03/31 02:27:09;;;;;;;14.35;6.10;;;;;;;15.98;35.76;99717.78;4957358;29;20055;-66
2022/03/31 02:29:35;;;;;;;11.70;6.60;;;;;;;15.97;35.32;99715.31;4957396;29;20094;-66
2022/03/31 02:32:00;;;;;;;13.75;7.00;;;;;;;15.95;36.23;99712.78;4956148;29;20102;-66
2022/03/31 02:34:26;;;;;;;9.50;5.28;;;;;;;15.94;34.85;99710.28;4957423;29;20035;-66
2022/03/31 02:36:51;;;;;;;14.20;6.22;;;;;;;15.91;36.15;99705.25;4956126;29;20019;-66
2022/03/31 02:39:16;;;;;;;16.38;6.20;;;;;;;15.90;36.05;99706.28;4956882;29;20436;-66
2022/03/31 02:41:42;;;;;;;10.90;5.88;;;;;;;15.89;35.76;99701.88;4957062;29;20030;-66
2022/03/31 02:44:08;;;;;;;14.27;6.40;;;;;;;15.87;35.09;99698.56;4957387;29;20027;-67
2022/03/31 02:46:33;;;;;;;13.05;5.72;;;;;;;15.87;35.46;99694.00;4956910;29;20030;-66
2022/03/31 02:48:59;;;;;;;13.82;7.18;;;;;;;15.87;34.98;99698.56;4957175;29;20035;-66
2022/03/31 02:51:25;;;;;;;14.02;6.90;;;;;;;15.83;36.64;99694.56;4955750;29;20054;-66
2022/03/31 02:56:36;;;;;;;13.30;6.65;;;;;;;15.81;35.39;99694.75;4956930;29;20078;-66
2022/03/31 02:59:01;;;;;;;16.00;6.72;;;;;;;15.82;36.03;99692.88;4956830;29;20023;-66
2022/03/31 03:01:27;;;;;;;14.48;7.50;;;;;;;15.81;35.70;99689.34;4956777;29;20062;-66
2022/03/31 03:03:57;;;;;;;11.57;6.22;;;;;;;15.80;35.52;99686.84;4955606;29;20477;-66
2022/03/31 03:06:23;;;;;;;16.48;6.93;;;;;;;15.80;36.46;99693.06;4957088;29;20034;-66
2022/03/31 03:08:48;;;;;;;12.93;6.90;;;;;;;15.81;36.58;99694.75;4956809;29;20019;-65
2022/03/31 03:11:15;;;;;;;12.48;6.60;;;;;;;15.81;35.44;99694.75;4956711;29;20531;-66
2022/03/31 03:13:41;;;;;;;13.88;6.82;;;;;;;15.80;36.80;99686.84;4956431;29;20046;-66
2022/03/31 03:16:08;;;;;;;13.77;6.45;;;;;;;15.81;35.25;99683.09;4956420;29;20167;-66
2022/03/31 03:18:34;;;;;;;17.40;6.78;;;;;;;15.79;36.26;99682.47;4956460;29;20023;-66
2022/03/31 03:21:00;;;;;;;12.27;7.38;;;;;;;15.78;35.29;99667.28;4955171;29;20105;-66
2022/03/31 03:23:26;;;;;;;13.68;6.47;;;;;;;15.73;35.93;99668.72;4956458;29;20153;-66
2022/03/31 03:25:51;;;;;;;13.38;6.20;;;;;;;15.69;36.08;99664.69;4939165;29;20446;-65
2022/03/31 03:28:16;;;;;;;13.02;6.80;;;;;;;15.69;36.54;99661.16;4955968;28;20030;-66
2022/03/31 03:30:42;;;;;;;13.40;6.97;;;;;;;15.69;36.73;99671.97;4956361;29;20110;-66
2022/03/31 03:33:07;;;;;;;14.45;6.15;;;;;;;15.67;37.09;99655.13;4956127;29;20057;-67
2022/03/31 03:35:32;;;;;;;17.58;6.95;;;;;;;15.66;35.75;99670.47;4956283;29;20461;-66
2022/03/31 03:37:58;;;;;;;12.23;6.82;;;;;;;15.66;35.89;99659.69;4956154;29;20086;-66
2022/03/31 03:40:25;;;;;;;14.00;6.75;;;;;;;15.66;36.29;99654.28;4956202;29;20019;-66
2022/03/31 03:42:50;;;;;;;9.88;5.85;;;;;;;15.64;36.46;99656.34;4956065;29;20027;-66
2022/03/31 03:45:16;;;;;;;9.77;6.07;;;;;;;15.64;36.25;99661.75;4955927;29;20102;-66
2022/03/31 03:47:42;;;;;;;12.43;7.03;;;;;;;15.63;37.36;99665.47;4956125;29;20046;-66
2022/03/31 03:50:08;;;;;;;10.80;6.47;;;;;;;15.60;37.35;99659.63;4954701;29;20393;-66
2022/03/31 03:52:33;;;;;;;10.00;6.47;;;;;;;15.59;36.83;99657.94;4955845;29;20094;-66
2022/03/31 03:54:59;;;;;;;12.93;6.55;;;;;;;15.58;36.92;99658.97;4955906;29;20056;-66
2022/03/31 03:57:25;;;;;;;14.10;6.75;;;;;;;15.53;36.23;99659.53;4955685;29;20588;-66
2022/03/31 03:59:50;;;;;;;12.20;6.72;;;;;;;15.50;36.32;99665.31;4955877;29;20031;-65
2022/03/31 04:02:16;;;;;;;16.13;5.90;;;;;;;15.49;36.18;99666.34;4955861;29;20436;-66
2022/03/31 04:04:41;;;;;;;15.82;6.13;;;;;;;15.47;37.19;99660.28;4955670;29;20489;-66
2022/03/31 04:07:07;;;;;;;11.60;6.50;;;;;;;15.46;37.10;99663.16;4955691;29;20031;-66
2022/03/31 04:09:32;;;;;;;10.85;6.30;;;;;;;15.44;37.39;99660.63;4955653;29;20019;-66
2022/03/31 04:11:57;;;;;;;12.20;6.47;;;;;;;15.42;37.50;99660.00;4955815;29;20043;-66
2022/03/31 04:14:23;;;;;;;13.68;6.40;;;;;;;15.40;37.27;99653.97;4955585;29;20038;-66
2022/03/31 04:16:48;;;;;;;15.40;6.95;;;;;;;15.35;37.36;99651.00;4955628;29;20388;-66
2022/03/31 04:19:14;;;;;;;11.43;7.00;;;;;;;15.36;37.06;99654.50;4955457;29;20557;-66
2022/03/31 04:21:39;;;;;;;13.13;7.25;;;;;;;15.34;37.25;99657.41;4955492;29;20098;-67
2022/03/31 04:24:05;;;;;;;11.57;6.75;;;;;;;15.34;37.26;99654.72;4955411;29;20043;-66
2022/03/31 04:26:32;;;;;;;14.00;6.85;;;;;;;15.34;38.00;99660.09;4954118;29;20027;-66
2022/03/31 04:28:57;;;;;;;12.80;7.13;;;;;;;15.33;37.65;99653.03;4955388;29;20027;-66
2022/03/31 04:31:23;;;;;;;15.80;6.80;;;;;;;15.33;36.77;99657.56;4938103;29;20440;-66
2022/03/31 04:33:48;;;;;;;14.70;6.63;;;;;;;15.31;37.30;99651.53;4955340;29;20110;-66
2022/03/31 04:36:14;;;;;;;17.42;7.03;;;;;;;15.28;37.19;99654.63;4955352;29;20107;-65
2022/03/31 04:38:39;;;;;;;12.77;7.10;;;;;;;15.27;37.53;99661.88;4955238;29;20090;-66
2022/03/31 04:41:05;;;;;;;12.85;7.65;;;;;;;15.26;37.69;99662.06;4957890;28;20019;-66
2022/03/31 04:43:30;;;;;;;13.95;7.03;;;;;;;15.26;37.98;99657.50;4959397;29;20027;-66
2022/03/31 04:45:55;;;;;;;13.85;6.65;;;;;;;15.27;36.63;99664.56;4959170;29;20031;-67
2022/03/31 04:48:21;;;;;;;17.88;7.07;;;;;;;15.27;36.73;99659.16;4959033;29;20078;-65
2022/03/31 04:50:46;;;;;;;15.02;7.47;;;;;;;15.23;38.19;99657.03;4959134;29;20111;-66
2022/03/31 04:53:12;;;;;;;16.98;7.20;;;;;;;15.21;37.25;99659.94;4958882;29;20114;-66
2022/03/31 04:55:38;;;;;;;13.05;7.55;;;;;;;15.21;37.31;99657.25;4958953;29;20023;-66
2022/03/31 04:58:04;;;;;;;15.98;7.40;;;;;;;15.20;37.07;99658.25;4957769;29;20031;-66
2022/03/31 05:00:29;;;;;;;14.90;6.68;;;;;;;15.20;37.01;99652.03;4957709;29;20396;-66
2022/03/31 05:02:55;;;;;;;13.82;7.35;;;;;;;15.18;37.49;99654.91;4958775;29;20500;-65
2022/03/31 05:05:21;;;;;;;12.02;6.60;;;;;;;15.14;38.00;99659.84;4958847;29;20035;-66
2022/03/31 05:07:46;;;;;;;15.00;7.25;;;;;;;15.12;38.21;99655.66;4958824;29;20086;-67
2022/03/31 05:10:12;;;;;;;16.63;8.07;;;;;;;15.12;38.13;99661.06;4958814;29;20473;-67
2022/03/31 05:12:37;;;;;;;14.48;7.60;;;;;;;15.12;37.62;99659.19;4957648;29;20034;-67
2022/03/31 05:15:03;;;;;;;13.77;7.72;;;;;;;15.11;38.06;99657.53;4959017;29;20031;-66
2022/03/31 05:17:35;;;;;;;15.70;7.97;;;;;;;15.09;38.29;99661.44;4958559;29;20027;-67
2022/03/31 05:20:08;;;;;;;18.55;7.47;;;;;;;15.12;37.24;99661.06;4958397;29;20082;-66
2022/03/31 05:22:35;;;;;;;16.40;7.43;;;;;;;15.11;37.83;99665.63;4958675;29;20027;-67
2022/03/31 05:25:01;;;;;;;15.43;7.93;;;;;;;15.09;37.64;99658.72;4958431;28;20081;-66
2022/03/31 05:27:27;;;;;;;20.83;8.73;;;;;;;15.09;38.19;99667.66;4958421;29;20031;-67
2022/03/31 05:29:52;;;;;;;20.25;7.82;;;;;;;15.04;38.77;99658.47;4958660;29;20402;-66
2022/03/31 05:32:17;;;;;;;16.13;7.32;;;;;;;15.04;38.56;99656.59;4958253;29;20034;-66
2022/03/31 05:34:43;;;;;;;18.65;8.23;;;;;;;15.03;37.39;99657.63;4958241;29;20473;-66
2022/03/31 05:37:08;;;;;;;18.48;7.97;;;;;;;15.05;37.37;99665.50;4958512;29;20058;-66
2022/03/31 05:39:34;;;;;;;18.40;7.55;;;;;;;15.04;37.38;99653.91;4958020;29;20036;-66
2022/03/31 05:41:59;;;;;;;15.50;6.90;;;;;;;15.05;37.70;99665.50;4956895;29;20023;-66
2022/03/31 05:44:25;;;;;;;15.88;8.00;;;;;;;15.04;38.66;99666.56;4958126;29;20106;-66
2022/03/31 05:46:51;;;;;;;20.20;8.15;;;;;;;15.06;37.54;99667.19;4958010;29;20519;-66
2022/03/31 05:49:17;;;;;;;14.20;6.85;;;;;;;15.05;38.31;99666.34;4958228;29;20392;-66
2022/03/31 05:51:42;;;;;;;17.75;8.73;;;;;;;15.05;37.38;99662.81;4957644;28;20051;-66
2022/03/31 05:54:07;;;;;;;15.35;7.75;;;;;;;15.04;38.34;99669.25;4957944;29;20388;-67
2022/03/31 05:56:34;;;;;;;15.60;7.35;;;;;;;15.03;38.50;99679.19;4957895;29;20031;-66
2022/03/31 05:58:59;;;;;;;16.13;8.23;;;;;;;15.01;38.46;99675.00;4957694;29;20396;-66
2022/03/31 06:01:25;;;;;;;15.43;6.93;;;;;;;14.96;37.61;99666.66;4957926;29;20031;-66
2022/03/31 06:03:50;;;;;;;16.08;7.40;;;;;;;14.93;38.22;99664.31;4956444;29;20031;-68
2022/03/31 06:06:15;;;;;;;16.60;8.20;;;;;;;14.92;38.27;99670.72;4956514;29;20050;-66
2022/03/31 06:08:41;;;;;;;17.90;8.50;;;;;;;14.88;38.81;99672.13;4957538;29;20449;-67
2022/03/31 06:11:06;;;;;;;19.02;8.82;;;;;;;14.86;38.62;99671.47;4957606;29;20035;-66
2022/03/31 06:13:31;;;;;;;17.95;8.88;;;;;;;14.81;38.51;99672.03;4957601;29;20106;-67
2022/03/31 06:15:57;;;;;;;17.88;8.63;;;;;;;14.79;39.09;99675.94;4957437;29;20082;-66
2022/03/31 06:18:23;;;;;;;20.05;8.90;;;;;;;14.76;39.05;99677.13;4956151;29;20031;-66
2022/03/31 06:20:48;;;;;;;21.08;9.57;;;;;;;14.73;38.69;99674.81;4957355;29;20023;-66
2022/03/31 06:23:14;;;;;;;20.55;8.88;;;;;;;14.69;38.07;99675.34;4957491;29;20031;-66
2022/03/31 06:25:42;;;;;;;20.83;9.43;;;;;;;14.65;39.24;99680.28;4957310;29;20039;-66
2022/03/31 06:28:08;;;;;;;23.50;10.70;;;;;;;14.63;39.09;99681.50;4957268;29;20078;-66
2022/03/31 06:30:34;;;;;;;27.33;10.68;;;;;;;14.60;38.94;99687.25;4957241;29;20027;-66
2022/03/31 06:32:59;;;;;;;20.15;9.15;;;;;;;14.56;37.97;99679.53;4957530;29;20046;-67
2022/03/31 06:35:25;;;;;;;20.92;9.50;;;;;;;14.53;39.10;99687.97;4957112;29;20035;-66
2022/03/31 06:37:50;;;;;;;21.92;10.65;;;;;;;14.48;37.84;99686.84;4957217;29;20039;-66
2022/03/31 06:40:17;;;;;;;23.98;9.70;;;;;;;14.39;39.03;99691.47;4957068;29;20042;-66
2022/03/31 06:42:45;;;;;;;22.63;10.52;;;;;;;14.34;39.26;99688.47;4957045;29;20035;-66
2022/03/31 06:45:15;;;;;;;23.15;10.25;;;;;;;14.29;39.00;99690.81;4955786;29;20031;-65
2022/03/31 06:47:42;;;;;;;18.45;9.93;;;;;;;14.25;39.06;99686.84;4955819;29;20027;-66
2022/03/31 06:50:08;;;;;;;23.23;10.13;;;;;;;14.24;38.95;99692.38;4956817;29;20503;-66
2022/03/31 06:52:34;;;;;;;23.08;9.60;;;;;;;14.24;38.38;99697.78;4956745;29;20059;-66
2022/03/31 06:54:59;;;;;;;20.13;9.88;;;;;;;14.22;38.81;99695.28;4956845;29;20050;-66
2022/03/31 06:57:24;;;;;;;24.95;8.45;;;;;;;14.24;38.38;99695.91;4939587;29;20035;-66
2022/03/31 06:59:50;;;;;;;19.67;8.60;;;;;;;14.21;38.91;99690.88;4956604;29;20073;-66
2022/03/31 07:02:15;;;;;;;19.15;8.98;;;;;;;14.19;38.29;99690.25;4955112;28;20053;-66
2022/03/31 07:04:41;;;;;;;16.20;8.82;;;;;;;14.16;38.58;99693.28;4955271;29;20046;-66
2022/03/31 07:07:07;;;;;;;17.58;8.43;;;;;;;14.17;39.09;99691.44;4955637;29;20094;-67
2022/03/31 07:09:32;;;;;;;18.35;8.20;;;;;;;14.18;38.33;99691.25;4956591;29;20023;-66
2022/03/31 07:11:57;;;;;;;19.75;9.20;;;;;;;14.20;38.94;99688.41;4955197;29;20401;-66
2022/03/31 07:14:23;;;;;;;25.98;9.48;;;;;;;14.24;38.68;99689.69;4964168;28;20109;-66
2022/03/31 07:16:48;;;;;;;18.95;8.15;;;;;;;14.25;39.58;99684.16;4965954;28;20023;-66
2022/03/31 07:19:14;;;;;;;18.48;8.23;;;;;;;14.28;38.37;99699.94;4971814;28;20031;-66
2022/03/31 07:21:39;;;;;;;21.70;8.02;;;;;;;14.26;39.41;99696.59;4963762;28;20015;-66
2022/03/31 07:24:05;;;;;;;21.27;9.40;;;;;;;14.29;38.15;99704.28;4964075;28;20081;-66
2022/03/31 07:26:32;;;;;;;19.00;8.10;;;;;;;14.29;38.72;99709.69;4974892;28;20058;-66
2022/03/31 07:28:57;;;;;;;19.52;9.38;;;;;;;14.26;38.13;99698.44;4969940;28;20086;-66
2022/03/31 07:31:24;;;;;;;18.08;8.20;;;;;;;14.25;38.97;99699.47;4963321;28;20039;-66
2022/03/31 07:33:50;;;;;;;19.58;9.02;;;;;;;14.25;39.39;99694.06;4961366;28;20529;-66
2022/03/31 07:36:17;;;;;;;17.08;8.68;;;;;;;14.26;39.15;99696.59;4963028;28;20031;-66
2022/03/31 07:38:42;;;;;;;15.65;7.60;;;;;;;14.25;38.72;99694.91;4969902;28;20071;-66
2022/03/31 07:41:08;;;;;;;21.55;9.02;;;;;;;14.28;39.27;99693.72;4975146;28;20062;-66
2022/03/31 07:43:34;;;;;;;21.73;9.35;;;;;;;14.32;38.37;99695.06;4964098;28;20426;-66
2022/03/31 07:45:59;;;;;;;17.17;8.52;;;;;;;14.38;39.41;99694.31;4955884;29;20027;-66
2022/03/31 07:48:24;;;;;;;20.00;8.63;;;;;;;14.40;38.67;99695.84;4958319;28;20089;-66
2022/03/31 07:50:50;;;;;;;20.17;8.93;;;;;;;14.43;38.57;99705.41;4964448;28;20034;-66
2022/03/31 07:53:17;;;;;;;20.75;9.48;;;;;;;14.44;39.58;99691.75;4956992;28;20039;-66
2022/03/31 07:55:43;;;;;;;21.17;8.15;;;;;;;14.43;39.32;99692.75;4954552;29;20110;-66
2022/03/31 07:58:08;;;;;;;24.60;9.20;;;;;;;14.42;38.85;99690.25;4959519;28;20154;-66
2022/03/31 08:00:33;;;;;;;19.00;8.88;;;;;;;14.40;39.29;99687.75;4963596;28;20030;-66
2022/03/31 08:03:01;;;;;;;20.67;9.82;;;;;;;14.37;38.99;99684.59;4958003;28;20080;-66
2022/03/31 08:05:27;;;;;;;23.83;8.80;;;;;;;14.38;39.58;99687.09;4960670;28;20027;-66
2022/03/31 08:07:53;;;;;;;20.75;8.68;;;;;;;14.36;38.91;99686.44;4955498;29;20030;-66
2022/03/31 08:10:20;;;;;;;22.08;9.10;;;;;;;14.36;38.29;99690.97;4954334;29;20027;-66
2022/03/31 08:12:45;;;;;;;20.30;9.30;;;;;;;14.35;39.36;99683.94;4954321;29;20031;-66
2022/03/31 08:15:14;;;;;;;15.95;8.57;;;;;;;14.35;39.23;99690.13;4955444;28;20038;-64
2022/03/31 08:17:39;;;;;;;13.93;6.38;;;;;;;14.38;38.65;99700.56;4954189;29;20031;-66
2022/03/31 08:20:07;;;;;;;13.77;6.22;;;;;;;14.34;38.63;99696.56;4955286;28;20040;-66
2022/03/31 08:22:32;;;;;;;13.63;6.13;;;;;;;14.31;39.21;99699.59;4938022;29;20027;-66
2022/03/31 08:24:58;;;;;;;16.35;6.03;;;;;;;14.31;39.65;99698.75;4955384;29;20082;-66
2022/03/31 08:27:23;;;;;;;20.90;5.78;;;;;;;14.29;39.09;99706.97;4938214;29;20114;-67
2022/03/31 08:29:48;;;;;;;12.32;5.65;;;;;;;14.30;39.58;99707.84;4954013;29;20030;-66
2022/03/31 08:32:15;;;;;;;12.07;5.82;;;;;;;14.30;39.46;99708.69;4954122;29;20054;-66
2022/03/31 08:34:41;;;;;;;12.55;6.07;;;;;;;14.31;38.66;99706.81;4953858;29;20023;-66
2022/03/31 08:37:06;;;;;;;15.75;5.93;;;;;;;14.29;38.45;99706.97;4955180;29;20031;-66
2022/03/31 08:39:31;;;;;;;14.35;5.78;;;;;;;14.27;39.47;99709.03;4955210;29;20098;-67
2022/03/31 08:41:57;;;;;;;14.40;5.80;;;;;;;14.27;39.24;99718.97;4955089;29;20078;-67
2022/03/31 08:44:23;;;;;;;11.00;5.50;;;;;;;14.25;38.75;99705.69;4955116;29;20074;-66
2022/03/31 08:46:49;;;;;;;12.75;6.20;;;;;;;14.25;39.22;99711.06;4937991;29;20023;-66
2022/03/31 08:49:15;;;;;;;10.68;5.60;;;;;;;14.19;38.82;99711.78;4955231;29;20358;-66
2022/03/31 08:51:45;;;;;;;10.05;4.85;;;;;;;14.15;39.03;99712.34;4953615;29;20079;-66
2022/03/31 08:54:11;;;;;;;8.25;4.53;;;;;;;14.11;39.33;99714.53;4955024;29;20031;-66
2022/03/31 08:56:37;;;;;;;10.18;5.47;;;;;;;14.09;39.15;99713.06;4955210;29;20496;-66
2022/03/31 08:59:03;;;;;;;13.70;5.78;;;;;;;14.06;39.38;99713.41;4955232;29;20075;-66
2022/03/31 09:01:30;;;;;;;10.10;4.40;;;;;;;14.02;39.47;99707.53;4955036;29;20023;-66
2022/03/31 09:03:55;;;;;;;8.32;4.75;;;;;;;14.00;39.28;99712.25;4955386;29;20073;-66
2022/03/31 09:06:22;;;;;;;11.27;4.43;;;;;;;13.98;39.10;99715.16;4955026;29;20393;-66
2022/03/31 09:08:58;;;;;;;9.30;4.00;;;;;;;13.95;39.77;99717.34;4955139;29;20512;-67
2022/03/31 09:11:35;;;;;;;7.05;3.65;;;;;;;13.89;39.19;99721.59;4954841;29;20385;-66
2022/03/31 09:14:03;;;;;;;10.07;3.83;;;;;;;13.88;40.05;99730.69;4955002;29;20058;-66
2022/03/31 09:16:29;;;;;;;10.40;3.72;;;;;;;13.86;39.29;99742.63;4954926;29;20027;-66
2022/03/31 09:19:00;;;;;;;8.05;3.92;;;;;;;13.83;39.54;99732.22;4954917;29;20031;-67
2022/03/31 09:21:25;;;;;;;8.02;3.88;;;;;;;13.81;39.78;99734.25;4954824;29;20027;-66
2022/03/31 09:23:50;;;;;;;5.35;2.95;;;;;;;13.78;39.61;99731.91;4954908;29;20031;-66
2022/03/31 09:26:17;;;;;;;3.70;2.28;;;;;;;13.74;39.24;99725.19;4956189;28;20470;-66
2022/03/31 09:28:44;;;;;;;6.90;2.97;;;;;;;13.68;40.04;99734.81;4958707;29;20057;-65
2022/03/31 09:31:10;;;;;;;6.15;2.97;;;;;;;13.64;40.07;99744.28;4958362;29;20019;-66
2022/03/31 09:33:39;;;;;;;6.72;3.53;;;;;;;13.58;40.01;99739.59;4958972;29;20556;-66
2022/03/31 09:36:07;;;;;;;3.95;2.35;;;;;;;13.54;40.12;99732.88;4958404;29;20023;-66
2022/03/31 09:38:35;;;;;;;8.13;3.35;;;;;;;13.49;39.66;99737.94;4958430;29;20094;-66
2022/03/31 09:41:03;;;;;;;8.57;2.97;;;;;;;13.46;40.64;99743.66;4958319;29;20461;-66
2022/03/31 09:43:37;;;;;;;10.27;3.03;;;;;;;13.43;40.13;99740.50;4941018;29;20081;-66
2022/03/31 09:46:02;;;;;;;5.93;2.60;;;;;;;13.41;39.63;99746.88;4958187;29;20102;-66
2022/03/31 09:48:28;;;;;;;5.72;2.88;;;;;;;13.36;40.30;99746.56;4957854;29;20114;-66
2022/03/31 09:50:53;;;;;;;4.35;2.65;;;;;;;13.34;40.34;99740.50;4957983;29;20027;-67
2022/03/31 09:53:19;;;;;;;2.65;2.45;;;;;;;13.30;40.44;99736.50;4957869;29;20155;-66
2022/03/31 09:55:45;;;;;;;2.92;2.10;;;;;;;13.27;40.18;99736.00;4958132;29;20102;-66
2022/03/31 09:58:19;;;;;;;3.58;2.30;;;;;;;13.26;40.46;99737.84;4957738;29;20027;-66
2022/03/31 10:00:45;;;;;;;4.43;2.22;;;;;;;13.20;40.30;99737.72;4957853;29;20031;-66
2022/03/31 10:03:15;;;;;;;2.55;2.13;;;;;;;13.14;40.86;99749.16;4957779;29;20030;-66
2022/03/31 10:05:42;;;;;;;3.97;2.05;;;;;;;13.11;40.23;99746.81;4956634;29;20098;-65
2022/03/31 10:08:10;;;;;;;3.28;2.08;;;;;;;13.08;40.65;99748.00;4957659;29;20034;-66
2022/03/31 10:10:35;;;;;;;3.25;1.88;;;;;;;13.06;41.43;99750.00;4957750;29;20065;-67
2022/03/31 10:13:11;;;;;;;3.13;2.13;;;;;;;13.04;41.03;99743.94;4957497;29;20027;-67
2022/03/31 10:15:37;;;;;;;2.85;1.73;;;;;;;13.03;40.96;99750.34;4956340;29;20031;-66
2022/03/31 10:18:04;;;;;;;3.67;2.30;;;;;;;13.05;40.55;99753.69;4957626;29;20034;-66
2022/03/31 10:20:29;;;;;;;2.58;1.90;;;;;;;13.03;40.79;99753.03;4957651;29;20504;-66
2022/03/31 10:25:45;;;;;;;2.80;1.73;;;;;;;12.95;40.41;99753.03;4957343;29;20090;-66
2022/03/31 10:28:13;;;;;;;2.67;1.63;;;;;;;12.93;41.20;99759.56;4957250;29;20023;-67
2022/03/31 10:30:40;;;;;;;2.58;1.83;;;;;;;12.92;40.34;99755.22;4957675;29;20031;-66
2022/03/31 10:33:10;;;;;;;3.25;1.80;;;;;;;12.89;40.61;99756.41;4956078;29;20037;-66
2022/03/31 10:35:41;;;;;;;5.65;1.85;;;;;;;12.91;40.61;99759.75;4955944;29;20388;-66
2022/03/31 10:38:17;;;;;;;2.72;1.70;;;;;;;12.91;41.26;99754.38;4956442;28;20424;-66
2022/03/31 10:40:46;;;;;;;3.63;1.80;;;;;;;12.88;40.50;99752.03;4957501;29;20086;-66
2022/03/31 10:43:44;;;;;;;2.50;1.48;;;;;;;12.85;41.04;99753.22;4957073;29;20535;-65
2022/03/31 10:46:15;;;;;;;2.42;1.98;;;;;;;12.86;40.74;99748.69;4955761;29;20489;-66
2022/03/31 10:48:48;;;;;;;3.28;1.92;;;;;;;12.85;40.86;99745.16;4958130;29;20031;-66
2022/03/31 10:51:13;;;;;;;;;;;;;;;12.84;41.13;99746.16;4957770;29;20477;-66
2022/03/31 10:53:40;;;;;;;2.40;1.50;;;;;;;12.84;40.94;99753.41;4956897;28;19918;-67
2022/03/31 10:56:26;;;;;;;2.85;1.77;;;;;;;12.81;41.03;99745.69;4957052;29;20091;-66
2022/03/31 10:59:00;;;;;;;3.15;2.17;;;;;;;12.78;41.29;99751.38;4955603;29;20062;-66
2022/03/31 11:01:36;;;;;;;2.38;1.85;;;;;;;12.79;41.13;99753.03;4956825;29;20031;-66
2022/03/31 11:04:06;;;;;;;2.35;1.52;;;;;;;12.80;41.71;99755.59;4957001;29;20055;-66
2022/03/31 11:06:32;;;;;;;3.20;1.95;;;;;;;12.80;41.38;99750.22;4956907;29;20094;-66
2022/03/31 11:08:57;;;;;;;2.30;1.38;;;;;;;12.82;41.08;99747.34;4956695;29;20031;-66
2022/03/31 11:11:29;;;;;;;2.35;1.83;;;;;;;12.85;41.63;99741.63;4956711;29;20033;-66
2022/03/31 11:13:56;;;;;;;1.50;1.40;;;;;;;12.83;41.87;99744.50;4956517;29;20023;-66
2022/03/31 11:16:23;;;;;;;2.78;1.92;;;;;;;12.89;41.92;99744.81;4956403;29;20023;-66
2022/03/31 11:18:56;;;;;;;2.17;1.73;;;;;;;12.92;41.24;99737.25;4956620;29;20529;-66
2022/03/31 11:21:22;;;;;;;2.00;1.67;;;;;;;12.96;41.09;99740.41;4956367;29;20027;-66
2022/03/31 11:23:48;;;;;;;2.45;1.75;;;;;;;13.02;41.00;99737.06;4956267;28;20037;-66
2022/03/31 11:26:25;;;;;;;2.90;1.92;;;;;;;13.06;41.73;99736.56;4956310;29;20042;-66
2022/03/31 11:28:51;;;;;;;3.13;2.30;;;;;;;13.07;41.81;99732.88;4955023;29;20031;-66